createdAt,value
2019-05-14T00:03:34.464Z,2.30
2019-05-14T00:08:35.953Z,2.20
2019-05-14T00:13:37.971Z,2.20
2019-05-14T00:18:41.764Z,2.20
2019-05-14T00:23:42.892Z,1.90
2019-05-14T00:28:44.448Z,2.10
2019-05-14T00:33:46.038Z,2.30
2019-05-14T00:38:47.596Z,2.03
2019-05-14T00:43:51.336Z,2.17
2019-05-14T00:48:52.935Z,2.03
2019-05-14T00:53:54.464Z,1.80
2019-05-14T00:58:55.964Z,2.30
2019-05-14T01:03:57.536Z,2.20
2019-05-14T01:09:01.057Z,2.33
2019-05-14T01:14:02.810Z,1.97
2019-05-14T01:19:04.608Z,2.10
2019-05-14T01:24:06.589Z,2.20
2019-05-14T01:29:08.175Z,2.00
2019-05-14T01:34:11.182Z,2.20
2019-05-14T01:39:13.243Z,2.30
2019-05-14T01:44:14.732Z,2.30
2019-05-14T01:49:16.229Z,2.30
2019-05-14T01:54:17.701Z,2.43
2019-05-14T01:59:21.246Z,2.20
2019-05-14T02:04:22.905Z,2.07
2019-05-14T02:09:24.386Z,1.97
2019-05-14T02:14:25.888Z,2.20
2019-05-14T02:19:27.355Z,2.00
2019-05-14T02:24:28.846Z,2.27
2019-05-14T02:29:32.058Z,2.50
2019-05-14T02:34:33.730Z,2.60
2019-05-14T02:39:35.310Z,2.47
2019-05-14T02:44:40.315Z,2.50
2019-05-14T02:49:40.536Z,2.80
2019-05-14T02:54:42.057Z,3.73
2019-05-14T02:59:43.613Z,3.63
2019-05-14T03:04:45.275Z,3.40
2019-05-14T03:09:49.841Z,3.00
2019-05-14T03:14:50.408Z,2.97
2019-05-14T03:19:52.227Z,2.73
2019-05-14T03:24:54.168Z,3.13
2019-05-14T03:29:58.496Z,2.67
2019-05-14T03:35:03.671Z,2.60
2019-05-14T03:40:09.257Z,2.70
2019-05-14T03:45:11.164Z,2.63
2019-05-14T03:50:13.143Z,2.30
2019-05-14T03:55:14.945Z,2.30
2019-05-14T04:00:22.428Z,2.50
2019-05-14T04:05:24.702Z,2.30
2019-05-14T04:10:29.885Z,2.20
2019-05-14T04:15:33.595Z,2.10
2019-05-14T04:20:39.237Z,2.50
2019-05-14T04:25:40.812Z,2.70
2019-05-14T04:30:43.598Z,2.57
2019-05-14T04:35:48.853Z,2.80
2019-05-14T04:40:49.899Z,2.40
2019-05-14T04:45:51.910Z,2.43
2019-05-14T04:50:53.453Z,2.33
2019-05-14T04:55:55.143Z,3.10
2019-05-14T05:01:00.135Z,2.67
2019-05-14T05:06:00.514Z,2.73
2019-05-14T05:11:02.001Z,2.67
2019-05-14T05:16:03.713Z,2.83
2019-05-14T05:21:05.239Z,2.70
2019-05-14T05:26:09.148Z,3.50
2019-05-14T05:31:10.533Z,2.70
2019-05-14T05:36:12.704Z,2.70
2019-05-14T05:41:14.192Z,3.00
2019-05-14T05:46:18.883Z,2.70
2019-05-14T05:51:19.940Z,2.67
2019-05-14T05:56:21.405Z,2.80
2019-05-14T06:01:38.588Z,2.73
2019-05-14T06:06:28.374Z,2.77
2019-05-14T06:11:30.104Z,2.67
2019-05-14T06:16:31.668Z,2.53
2019-05-14T06:21:33.154Z,2.80
2019-05-14T06:26:34.647Z,2.90
2019-05-14T06:31:38.663Z,2.70
2019-05-14T06:36:39.749Z,2.83
2019-05-14T06:41:42.976Z,2.83
2019-05-14T06:46:45.350Z,2.40
2019-05-14T06:51:48.965Z,2.90
2019-05-14T06:56:50.466Z,2.43
2019-05-14T07:01:52.022Z,3.10
2019-05-14T07:06:54.006Z,3.10
2019-05-14T07:11:55.490Z,3.03
2019-05-14T07:16:58.849Z,2.87
2019-05-14T07:22:00.487Z,2.50
2019-05-14T07:27:02.085Z,2.80
2019-05-14T07:32:03.654Z,2.57
2019-05-14T07:37:05.337Z,2.30
2019-05-14T07:42:09.904Z,2.20
2019-05-14T07:47:10.599Z,1.90
2019-05-14T07:52:12.098Z,1.90
2019-05-14T07:57:13.705Z,1.70
2019-05-14T08:02:15.278Z,1.80
2019-05-14T08:07:18.001Z,1.67
2019-05-14T08:12:19.775Z,1.80
2019-05-14T08:17:23.754Z,1.50
2019-05-14T08:22:25.236Z,1.57
2019-05-14T08:27:30.976Z,1.40
2019-05-14T08:32:30.126Z,1.30
2019-05-14T08:37:31.741Z,1.97
2019-05-14T08:42:34.329Z,1.30
2019-05-14T08:47:38.854Z,1.30
2019-05-14T08:52:40.181Z,0.83
2019-05-14T08:57:41.917Z,1.30
2019-05-14T09:02:43.608Z,1.20
2019-05-14T09:07:45.094Z,1.10
2019-05-14T09:12:51.480Z,1.20
2019-05-14T09:17:55.941Z,0.97
2019-05-14T09:22:59.520Z,1.60
2019-05-14T09:28:01.189Z,1.20
2019-05-14T09:33:02.938Z,1.57
2019-05-14T09:38:04.524Z,1.20
2019-05-14T09:43:09.034Z,1.00
2019-05-14T09:48:09.408Z,0.80
2019-05-14T09:53:10.997Z,1.30
2019-05-14T09:58:12.487Z,1.50
2019-05-14T10:03:14.232Z,1.40
2019-05-14T10:08:15.726Z,1.10
2019-05-14T10:13:17.312Z,1.33
2019-05-14T10:18:19.048Z,1.20
2019-05-14T10:23:20.790Z,1.37
2019-05-14T10:28:22.377Z,1.27
2019-05-14T10:33:23.794Z,1.10
2019-05-14T10:38:25.507Z,1.17
2019-05-14T10:43:28.909Z,1.20
2019-05-14T10:48:30.409Z,1.67
2019-05-14T10:53:32.005Z,1.10
2019-05-14T10:58:33.634Z,1.30
2019-05-14T11:03:35.778Z,1.17
2019-05-14T11:08:38.728Z,1.70
2019-05-14T11:13:40.482Z,0.90
2019-05-14T11:18:42.213Z,1.20
2019-05-14T11:23:43.999Z,1.20
2019-05-14T11:28:48.795Z,1.40
2019-05-14T11:33:49.833Z,1.03
2019-05-14T11:38:51.561Z,0.93
2019-05-14T11:43:53.050Z,1.07
2019-05-14T11:48:54.549Z,1.10
2019-05-14T11:53:58.559Z,0.87
2019-05-14T11:58:59.557Z,1.07
2019-05-14T12:04:01.293Z,1.50
2019-05-14T12:09:05.484Z,1.20
2019-05-14T12:14:08.991Z,1.23
2019-05-14T12:19:11.920Z,1.23
2019-05-14T12:24:14.044Z,1.20
2019-05-14T12:29:15.607Z,1.80
2019-05-14T12:34:18.641Z,1.20
2019-05-14T12:39:20.390Z,1.33
2019-05-14T12:44:22.203Z,1.43
2019-05-14T12:49:23.774Z,1.30
2019-05-14T12:54:25.265Z,1.60
2019-05-14T12:59:28.520Z,1.30
2019-05-14T13:04:30.245Z,1.00
2019-05-14T13:09:31.725Z,1.30
2019-05-14T13:14:33.224Z,1.20
2019-05-14T13:19:34.700Z,1.13
2019-05-14T13:24:39.297Z,1.30
2019-05-14T13:29:39.598Z,1.50
2019-05-14T13:34:41.118Z,1.03
2019-05-14T13:39:42.839Z,1.33
2019-05-14T13:44:44.352Z,1.20
2019-05-14T13:49:48.499Z,1.20
2019-05-14T13:54:49.232Z,1.27
2019-05-14T13:59:50.721Z,1.40
2019-05-14T14:04:52.370Z,1.20
2019-05-14T14:09:53.991Z,0.80
2019-05-14T14:14:55.468Z,1.10
2019-05-14T14:19:58.933Z,1.10
2019-05-14T14:25:00.547Z,1.17
2019-05-14T14:30:05.337Z,1.10
2019-05-14T14:35:08.817Z,1.10
2019-05-14T14:40:11.292Z,1.40
2019-05-14T14:45:13.893Z,1.10
2019-05-14T14:50:15.482Z,1.10
2019-05-14T14:55:19.330Z,1.43
2019-05-14T15:00:21.067Z,1.60
2019-05-14T15:05:22.812Z,1.07
2019-05-14T15:10:24.898Z,1.10
2019-05-14T15:15:26.393Z,1.30
2019-05-14T15:20:28.964Z,1.23
2019-05-14T15:25:30.725Z,1.00
2019-05-14T15:30:32.326Z,1.00
2019-05-14T15:35:33.962Z,1.00
2019-05-14T15:40:35.563Z,1.30
2019-05-14T15:45:37.835Z,2.00
2019-05-14T15:50:39.731Z,1.13
2019-05-14T15:55:42.676Z,0.97
2019-05-14T16:00:44.160Z,1.20
2019-05-14T16:05:48.631Z,1.20
2019-05-14T16:10:49.113Z,1.10
2019-05-14T16:15:50.707Z,1.00
2019-05-14T16:20:52.204Z,1.20
2019-05-14T16:25:53.691Z,1.20
2019-05-14T16:30:55.736Z,1.00
2019-05-14T16:35:57.962Z,1.00
2019-05-14T16:40:59.881Z,1.20
2019-05-14T16:46:01.449Z,1.00
2019-05-14T16:51:03.042Z,1.33
2019-05-14T16:56:04.934Z,1.20
2019-05-14T17:01:09.226Z,1.30
2019-05-14T17:06:10.274Z,1.33
2019-05-14T17:11:11.896Z,1.20
2019-05-14T17:16:13.581Z,1.30
2019-05-14T17:21:15.417Z,1.10
2019-05-14T17:26:17.403Z,1.10
2019-05-14T17:31:19.292Z,1.20
2019-05-14T17:36:20.901Z,1.17
2019-05-14T17:41:22.496Z,1.03
2019-05-14T17:46:25.107Z,1.70
2019-05-14T17:51:28.444Z,1.10
2019-05-14T17:56:30.231Z,1.00
2019-05-14T18:01:31.851Z,1.20
2019-05-14T18:06:33.399Z,1.07
2019-05-14T18:11:34.993Z,1.33
2019-05-14T18:16:38.028Z,1.17
2019-05-14T18:21:39.711Z,1.37
2019-05-14T18:26:41.277Z,1.20
2019-05-14T18:31:44.862Z,1.20
2019-05-14T18:36:48.700Z,1.10
2019-05-14T18:41:50.019Z,1.40
2019-05-14T18:46:51.745Z,1.07
2019-05-14T18:51:59.268Z,1.20
2019-05-14T18:57:04.622Z,1.30
2019-05-14T19:02:08.648Z,1.30
2019-05-14T19:07:09.947Z,1.10
2019-05-14T19:12:11.434Z,1.00
2019-05-14T19:17:13.045Z,1.10
2019-05-14T19:22:14.531Z,1.30
2019-05-14T19:27:16.224Z,2.20
2019-05-14T19:32:19.114Z,1.60
2019-05-14T19:37:20.821Z,1.40
2019-05-14T19:42:22.417Z,1.70
2019-05-14T19:47:23.914Z,3.50
2019-05-14T19:52:25.418Z,1.77
2019-05-14T19:57:28.981Z,1.83
2019-05-14T20:02:30.542Z,1.50
2019-05-14T20:07:32.146Z,1.40
2019-05-14T20:12:33.676Z,1.07
2019-05-14T20:17:35.358Z,1.30
2019-05-14T20:22:39.195Z,1.10
2019-05-14T20:27:40.454Z,1.10
2019-05-14T20:32:44.290Z,1.30
2019-05-14T20:37:45.632Z,1.37
2019-05-14T20:42:49.270Z,1.37
2019-05-14T20:47:50.577Z,1.30
2019-05-14T20:52:52.308Z,1.20
2019-05-14T20:57:54.107Z,1.40
2019-05-14T21:02:55.606Z,1.10
2019-05-14T21:07:58.864Z,1.20
2019-05-14T21:13:01.190Z,1.10
2019-05-14T21:18:03.018Z,1.30
2019-05-14T21:23:08.810Z,1.20
2019-05-14T21:28:10.143Z,1.03
2019-05-14T21:33:12.873Z,1.50
2019-05-14T21:38:14.349Z,1.57
2019-05-14T21:43:18.393Z,1.93
2019-05-14T21:48:19.916Z,1.87
2019-05-14T21:53:21.671Z,1.40
2019-05-14T21:58:23.256Z,1.40
2019-05-14T22:03:25.173Z,1.57
2019-05-14T22:08:27.962Z,1.50
2019-05-14T22:13:31.267Z,1.50
2019-05-14T22:18:32.884Z,1.40
2019-05-14T22:23:34.385Z,1.00
2019-05-14T22:28:35.961Z,1.70
2019-05-14T22:33:38.143Z,1.43
2019-05-14T22:38:39.916Z,1.47
2019-05-14T22:43:41.394Z,1.50
2019-05-14T22:48:43.261Z,1.53
2019-05-14T22:53:44.760Z,1.60
2019-05-14T22:58:48.646Z,1.70
2019-05-14T23:03:49.646Z,1.50
2019-05-14T23:08:51.204Z,1.57
2019-05-14T23:13:52.680Z,1.63
2019-05-14T23:18:54.171Z,2.03
2019-05-14T23:23:58.126Z,2.03
2019-05-14T23:28:59.068Z,1.40
2019-05-14T23:34:00.885Z,1.70
2019-05-14T23:39:05.472Z,1.63
2019-05-14T23:44:08.316Z,1.80
2019-05-14T23:49:10.446Z,1.47
2019-05-14T23:54:11.947Z,1.73
2019-05-14T23:59:13.446Z,1.30
